Time;durP1;ratioP1;P1;durP2;ratioP2;P2;SDS_P1;SDS_P2;PMS_P1;PMS_P2;Temp;Humidity;BMP_temperature;BMP_pressure;BME280_temperature;BME280_humidity;BME280_pressure;Samples;Min_cycle;Max_cycle;Signal;HPM_P1;HPM_P2
2021/07/26 00:00:11;;;;;;;10.70;9.60;;;;;;;21.90;61.37;100270.41;92849;1210;69678;-60
2021/07/26 00:02:39;;;;;;;10.60;9.50;;;;;;;21.83;62.17;100268.97;92953;1204;89003;-60
2021/07/26 00:04:47;;;;;;;10.80;9.70;;;;;;;21.76;62.43;100267.27;92936;1207;74477;-66
2021/07/26 00:06:57;;;;;;;11.10;10.00;;;;;;;21.68;62.96;100267.77;92905;1208;80443;-68
2021/07/26 00:09:05;;;;;;;11.20;10.10;;;;;;;21.64;63.18;100263.91;92936;1207;66038;-68
2021/07/26 00:11:13;;;;;;;12.10;10.80;;;;;;;21.57;63.92;100240.47;92965;1205;68960;-61
2021/07/26 00:13:21;;;;;;;12.40;10.20;;;;;;;21.55;64.09;100228.92;92941;1208;86302;-60
2021/07/26 00:15:29;;;;;;;11.50;10.30;;;;;;;21.50;64.54;100243.47;92963;1213;74547;-60
2021/07/26 00:17:37;;;;;;;11.10;9.90;;;;;;;21.42;64.73;100230.22;92917;1208;80847;-60
2021/07/26 00:19:45;;;;;;;11.40;10.20;;;;;;;21.48;64.71;100217.34;92940;1208;65662;-61
2021/07/26 00:21:52;;;;;;;12.20;10.80;;;;;;;21.47;65.02;100216.51;92973;1209;69586;-61
2021/07/26 00:24:00;;;;;;;15.20;11.40;;;;;;;21.52;64.83;100207.45;92855;1210;85501;-61
2021/07/26 00:26:08;;;;;;;13.90;11.60;;;;;;;21.50;65.23;100198.66;92955;1213;75906;-60
2021/07/26 00:28:15;;;;;;;12.60;11.00;;;;;;;21.47;65.34;100208.27;92917;1208;81209;-60
2021/07/26 00:30:23;;;;;;;12.30;10.90;;;;;;;21.45;65.38;100204.13;92925;1216;68657;-67
2021/07/26 00:32:31;;;;;;;13.20;11.80;;;;;;;21.49;65.77;100214.31;92961;1206;69567;-68
2021/07/26 00:34:38;;;;;;;14.90;11.70;;;;;;;21.42;65.98;100213.73;92961;1208;86361;-67
2021/07/26 00:36:48;;;;;;;11.50;10.30;;;;;;;21.31;66.53;100214.75;92861;1210;75470;-68
2021/07/26 00:38:58;;;;;;;12.30;10.30;;;;;;;21.26;67.10;100220.19;92921;1208;80120;-67
2021/07/26 00:41:08;;;;;;;12.60;10.90;;;;;;;21.23;67.22;100223.48;92825;1217;67837;-67
2021/07/26 00:43:16;;;;;;;12.00;10.60;;;;;;;21.22;67.57;100224.56;92936;1209;68572;-68
2021/07/26 00:45:23;;;;;;;13.10;11.50;;;;;;;21.14;67.88;100212.16;92951;1200;86377;-68
2021/07/26 00:47:31;;;;;;;15.60;12.70;;;;;;;21.14;67.83;100203.08;92924;1212;74537;-67
2021/07/26 00:49:39;;;;;;;12.20;10.80;;;;;;;21.12;68.07;100191.53;92870;1210;80325;-67
2021/07/26 00:51:50;;;;;;;13.00;11.60;;;;;;;21.10;68.23;100186.28;92916;1208;68003;-68
2021/07/26 00:53:58;;;;;;;13.50;12.20;;;;;;;21.16;67.99;100187.15;92956;1216;69578;-67
2021/07/26 00:56:06;;;;;;;13.40;12.00;;;;;;;21.17;68.07;100177.83;92950;1207;86529;-67
2021/07/26 00:58:14;;;;;;;13.80;12.40;;;;;;;21.21;68.02;100178.94;92949;1212;74428;-67
2021/07/26 01:00:22;;;;;;;15.50;12.70;;;;;;;21.23;68.11;100179.52;92984;1205;81108;-61
2021/07/26 01:02:30;;;;;;;13.60;12.20;;;;;;;21.25;67.86;100169.09;92936;1215;67071;-61
2021/07/26 01:04:37;;;;;;;13.80;12.20;;;;;;;21.28;68.11;100187.80;92966;1200;69524;-68
2021/07/26 01:06:49;;;;;;;14.00;12.60;;;;;;;21.26;67.80;100187.21;92960;1208;86307;-68
2021/07/26 01:08:57;;;;;;;13.80;12.40;;;;;;;21.25;68.05;100182.83;92942;1216;74583;-68
2021/07/26 01:11:05;;;;;;;12.70;11.40;;;;;;;21.31;68.15;100181.77;92861;1210;80854;-61
2021/07/26 01:13:12;;;;;;;12.30;11.10;;;;;;;21.25;67.93;100184.74;92953;1205;67021;-62
2021/07/26 01:15:20;;;;;;;13.40;12.10;;;;;;;21.30;67.81;100182.02;92957;1208;68152;-68
2021/07/26 01:18:23;;;;;;;13.80;12.40;;;;;;;21.29;68.08;100170.20;92816;1210;86469;-67
2021/07/26 01:20:31;;;;;;;13.50;12.10;;;;;;;21.32;67.62;100169.67;92636;1213;74532;-67
2021/07/26 01:22:39;;;;;;;13.10;11.80;;;;;;;21.34;67.50;100166.67;92925;1212;81187;-68
2021/07/26 01:24:49;;;;;;;16.70;13.40;;;;;;;21.35;67.53;100168.31;92935;1205;67690;-67
2021/07/26 01:26:59;;;;;;;18.60;14.30;;;;;;;21.34;67.17;100167.51;92949;1207;70010;-68
2021/07/26 01:29:10;;;;;;;19.60;14.20;;;;;;;21.31;67.24;100162.54;92859;1210;86876;-68
2021/07/26 01:31:19;;;;;;;14.20;12.70;;;;;;;21.31;67.24;100168.03;92960;1207;75099;-61
2021/07/26 01:33:27;;;;;;;14.00;12.40;;;;;;;21.31;67.15;100161.70;92948;1207;81361;-61
2021/07/26 01:35:34;;;;;;;15.10;12.00;;;;;;;21.35;66.84;100163.65;92952;1207;65214;-60
2021/07/26 01:37:42;;;;;;;13.10;11.50;;;;;;;21.33;66.52;100163.09;92985;1207;69330;-60
2021/07/26 01:39:49;;;;;;;12.10;10.90;;;;;;;21.32;66.32;100160.59;92915;1209;85888;-66
2021/07/26 01:42:00;;;;;;;15.50;11.90;;;;;;;21.29;66.24;100156.45;92941;1212;75528;-67
2021/07/26 01:44:11;;;;;;;12.20;11.00;;;;;;;21.22;66.33;100158.63;92865;1217;81207;-67
2021/07/26 01:46:27;;;;;;;14.20;11.80;;;;;;;21.21;66.28;100172.61;92955;1207;67736;-61
2021/07/26 01:48:43;;;;;;;15.80;11.10;;;;;;;21.19;66.29;100161.90;92956;1213;68176;-60
2021/07/26 01:50:58;;;;;;;12.20;10.90;;;;;;;21.19;66.30;100170.14;92997;1208;85096;-61
2021/07/26 01:53:09;;;;;;;12.60;11.00;;;;;;;21.17;66.09;100164.09;92952;1207;74381;-60
2021/07/26 01:55:17;;;;;;;11.60;10.10;;;;;;;21.12;66.21;100153.88;92918;1215;80520;-68
2021/07/26 01:57:25;;;;;;;14.30;11.30;;;;;;;21.10;66.41;100155.23;92965;1208;65764;-67
2021/07/26 01:59:36;;;;;;;13.10;11.00;;;;;;;21.00;66.65;100155.14;92976;1208;68904;-66
2021/07/26 02:01:44;;;;;;;12.60;10.40;;;;;;;20.98;66.84;100151.83;92857;1210;86886;-67
2021/07/26 02:03:56;;;;;;;11.90;10.70;;;;;;;20.90;66.79;100150.41;92979;1208;74480;-67
2021/07/26 02:06:03;;;;;;;12.00;10.90;;;;;;;20.94;66.59;100153.44;92969;1208;81260;-67
2021/07/26 02:08:11;;;;;;;12.10;10.90;;;;;;;20.95;66.88;100150.45;92866;1210;65887;-68
2021/07/26 02:10:19;;;;;;;11.70;10.50;;;;;;;20.91;66.87;100152.05;92974;1207;68945;-68
2021/07/26 02:12:26;;;;;;;12.50;11.10;;;;;;;20.91;66.83;100153.95;92962;1206;86717;-69
2021/07/26 02:14:34;;;;;;;12.50;11.00;;;;;;;20.90;66.42;100157.81;92949;1216;74319;-62
2021/07/26 02:16:43;;;;;;;13.00;11.70;;;;;;;20.92;66.25;100152.88;92855;1209;81315;-62
2021/07/26 02:18:50;;;;;;;12.60;11.00;;;;;;;20.88;66.68;100149.82;92968;1215;68178;-61
2021/07/26 02:20:58;;;;;;;12.20;11.10;;;;;;;20.80;66.48;100152.22;92851;1210;69421;-59
2021/07/26 02:23:05;;;;;;;12.40;11.20;;;;;;;20.82;66.68;100152.81;92960;1207;87450;-60
2021/07/26 02:25:17;;;;;;;11.20;10.10;;;;;;;20.82;66.79;100156.36;92965;1208;74091;-68
2021/07/26 02:27:24;;;;;;;11.80;10.60;;;;;;;20.78;67.06;100146.17;92924;1216;82938;-68
2021/07/26 02:29:35;;;;;;;11.70;10.50;;;;;;;20.73;67.40;100149.71;92940;1212;67426;-67
2021/07/26 02:31:42;;;;;;;13.40;10.80;;;;;;;20.72;67.49;100150.80;92955;1213;67865;-68
2021/07/26 02:33:50;;;;;;;11.50;10.40;;;;;;;20.64;67.84;100150.44;92961;1212;86431;-68
2021/07/26 02:35:57;;;;;;;10.90;9.90;;;;;;;20.63;68.28;100149.60;92914;1210;75134;-67
2021/07/26 02:38:05;;;;;;;12.30;11.10;;;;;;;20.58;68.64;100142.16;92972;1206;81333;-69
2021/07/26 02:40:18;;;;;;;13.30;11.20;;;;;;;20.58;68.54;100144.91;92969;1207;67070;-60
2021/07/26 02:42:25;;;;;;;12.00;10.90;;;;;;;20.62;68.62;100141.64;92972;1210;69374;-60
2021/07/26 02:44:36;;;;;;;11.90;10.80;;;;;;;20.60;68.38;100142.72;92865;1210;86888;-68
2021/07/26 02:46:44;;;;;;;12.30;10.80;;;;;;;20.59;68.50;100138.34;92989;1216;74606;-68
2021/07/26 02:48:51;;;;;;;11.50;10.40;;;;;;;20.67;68.19;100136.19;92955;1208;79940;-68
2021/07/26 02:50:59;;;;;;;12.50;11.30;;;;;;;20.72;67.85;100138.98;92950;1207;65770;-68
2021/07/26 02:53:07;;;;;;;11.20;10.10;;;;;;;20.72;67.87;100141.72;92974;1212;67660;-68
2021/07/26 02:55:16;;;;;;;12.00;10.80;;;;;;;20.76;67.77;100142.87;92958;1207;86574;-67
2021/07/26 02:57:26;;;;;;;12.40;11.10;;;;;;;20.72;67.74;100136.23;92900;1210;74527;-68
2021/07/26 02:59:34;;;;;;;10.70;9.70;;;;;;;20.72;67.25;100138.98;92907;1207;81040;-62
2021/07/26 03:01:42;;;;;;;11.10;10.00;;;;;;;20.71;67.40;100146.38;92935;1216;68401;-61
2021/07/26 03:03:50;;;;;;;11.40;10.20;;;;;;;20.65;67.53;100136.47;92956;1208;68033;-61
2021/07/26 03:05:57;;;;;;;12.10;10.30;;;;;;;20.63;67.76;100135.88;92921;1212;86563;-68
2021/07/26 03:08:06;;;;;;;11.10;10.00;;;;;;;20.64;67.52;100133.97;92858;1217;75300;-68
2021/07/26 03:10:15;;;;;;;10.90;9.70;;;;;;;20.64;67.46;100133.97;92924;1201;81611;-62
2021/07/26 03:12:22;;;;;;;12.40;10.60;;;;;;;20.65;67.61;100135.63;92957;1216;66625;-61
2021/07/26 03:14:33;;;;;;;11.60;10.50;;;;;;;20.62;67.45;100136.16;92954;1212;67665;-63
2021/07/26 03:16:41;;;;;;;11.40;10.10;;;;;;;20.66;67.33;100131.81;92937;1213;85449;-61
2021/07/26 03:18:48;;;;;;;10.60;9.50;;;;;;;20.72;66.97;100130.73;92846;1211;74886;-61
2021/07/26 03:20:58;;;;;;;11.40;10.10;;;;;;;20.78;66.92;100124.20;92909;1215;81506;-61
2021/07/26 03:23:08;;;;;;;11.80;10.00;;;;;;;20.86;66.85;100126.46;92952;1205;67216;-60
2021/07/26 03:25:17;;;;;;;11.20;10.10;;;;;;;20.88;66.91;100124.27;93009;1205;69522;-61
2021/07/26 03:27:24;;;;;;;11.40;10.30;;;;;;;20.91;66.63;100129.24;92992;1209;86140;-61
2021/07/26 03:29:32;;;;;;;12.70;11.30;;;;;;;20.93;66.49;100121.59;92992;1207;75283;-68
2021/07/26 03:31:40;;;;;;;11.70;9.70;;;;;;;20.98;66.34;100113.38;92947;1200;82315;-69
2021/07/26 03:33:51;;;;;;;11.00;9.80;;;;;;;21.01;66.28;100119.16;92961;1215;68248;-68
2021/07/26 03:35:59;;;;;;;10.40;9.30;;;;;;;21.08;66.24;100114.30;92946;1207;69296;-67
2021/07/26 03:38:09;;;;;;;12.10;10.60;;;;;;;21.16;66.09;100116.55;92956;1212;86186;-68
2021/07/26 03:40:19;;;;;;;11.10;9.90;;;;;;;21.25;65.92;100113.30;92952;1207;76436;-68
2021/07/26 03:42:26;;;;;;;12.40;10.70;;;;;;;21.31;65.72;100121.32;92944;1215;81687;-68
2021/07/26 03:44:34;;;;;;;10.60;8.90;;;;;;;21.39;65.44;100114.48;92938;1212;67202;-68
2021/07/26 03:46:44;;;;;;;11.70;9.70;;;;;;;21.45;65.22;100114.22;92941;1207;69940;-69
2021/07/26 03:48:52;;;;;;;11.50;9.20;;;;;;;21.50;65.16;100117.02;92887;1216;86457;-68
2021/07/26 03:51:02;;;;;;;10.70;8.80;;;;;;;21.54;65.02;100118.13;92957;1212;74247;-60
2021/07/26 03:53:10;;;;;;;9.80;8.80;;;;;;;21.59;65.08;100120.09;92908;1215;81423;-60
2021/07/26 03:55:27;;;;;;;10.10;8.80;;;;;;;21.63;64.95;100124.77;92897;1216;68040;-68
2021/07/26 03:57:38;;;;;;;10.20;9.10;;;;;;;21.72;64.66;100125.09;92953;1208;68183;-68
2021/07/26 03:59:45;;;;;;;9.80;8.80;;;;;;;21.75;64.66;100119.86;92933;1216;86732;-60
2021/07/26 04:01:56;;;;;;;10.10;9.10;;;;;;;21.82;64.65;100114.12;92941;1209;74000;-60
2021/07/26 04:04:06;;;;;;;8.90;8.00;;;;;;;21.81;64.27;100115.20;92922;1208;81330;-60
2021/07/26 04:06:16;;;;;;;11.30;9.10;;;;;;;21.83;64.17;100114.95;92974;1207;65866;-69
2021/07/26 04:08:25;;;;;;;10.50;9.30;;;;;;;21.83;64.22;100115.78;92982;1206;69368;-68
2021/07/26 04:10:35;;;;;;;12.00;9.50;;;;;;;21.88;64.04;100114.99;92857;1210;86388;-61
2021/07/26 04:12:46;;;;;;;10.70;8.50;;;;;;;21.87;64.01;100108.66;92965;1215;75771;-60
2021/07/26 04:14:54;;;;;;;10.40;8.30;;;;;;;21.93;63.52;100115.00;92877;1210;81321;-60
2021/07/26 04:17:01;;;;;;;10.90;8.90;;;;;;;22.00;63.41;100107.34;92949;1208;65990;-61
2021/07/26 04:19:11;;;;;;;13.20;9.20;;;;;;;21.95;63.67;100101.83;92963;1208;68012;-61
2021/07/26 04:21:19;;;;;;;10.70;8.60;;;;;;;21.94;63.20;100102.92;92954;1208;87131;-60
2021/07/26 04:23:30;;;;;;;9.50;8.60;;;;;;;21.94;63.16;100101.00;92969;1208;73766;-60
2021/07/26 04:25:37;;;;;;;10.10;9.00;;;;;;;22.10;63.19;100105.44;92941;1212;82239;-68
2021/07/26 04:27:45;;;;;;;10.30;8.70;;;;;;;22.23;63.41;100104.07;92955;1200;68184;-68
2021/07/26 04:29:52;;;;;;;12.30;8.70;;;;;;;22.25;63.26;100110.13;92934;1212;68074;-68
2021/07/26 04:32:00;;;;;;;10.80;9.00;;;;;;;22.30;63.01;100104.65;92968;1208;86064;-68
2021/07/26 04:34:08;;;;;;;10.60;8.90;;;;;;;22.44;62.91;100113.20;92953;1214;74614;-68
2021/07/26 04:36:18;;;;;;;11.50;8.30;;;;;;;22.51;62.75;100106.31;92930;1208;81822;-68
2021/07/26 04:38:26;;;;;;;50.90;42.50;;;;;;;22.65;62.86;100114.88;92982;1205;66739;-67
2021/07/26 04:40:34;;;;;;;14.50;11.00;;;;;;;22.68;62.43;100098.64;92950;1204;68816;-68
2021/07/26 04:42:43;;;;;;;13.00;8.50;;;;;;;22.87;61.95;100102.48;92967;1205;86800;-67
2021/07/26 04:44:51;;;;;;;12.80;8.50;;;;;;;23.60;61.95;100108.38;92926;1207;73818;-67
2021/07/26 04:47:01;;;;;;;8.70;7.40;;;;;;;24.67;60.99;100117.70;92933;1212;81012;-67
2021/07/26 04:49:12;;;;;;;11.60;8.50;;;;;;;25.20;59.41;100111.16;92839;1210;66323;-67
2021/07/26 04:51:20;;;;;;;9.30;8.40;;;;;;;25.60;59.18;100109.89;92973;1215;68877;-69
2021/07/26 04:53:27;;;;;;;9.10;7.90;;;;;;;26.27;57.76;100111.52;92941;1211;86910;-69
2021/07/26 04:55:35;;;;;;;8.60;7.10;;;;;;;26.41;55.94;100113.53;92960;1211;73938;-68
2021/07/26 04:57:42;;;;;;;10.50;7.80;;;;;;;26.62;55.34;100109.30;92842;1208;82450;-68
2021/07/26 04:59:50;;;;;;;8.90;7.80;;;;;;;26.94;55.34;100112.13;92974;1215;66378;-68
2021/07/26 05:02:00;;;;;;;8.70;7.70;;;;;;;27.21;54.83;100112.18;92938;1215;68824;-68
2021/07/26 05:04:08;;;;;;;8.80;7.40;;;;;;;27.65;54.22;100116.34;92941;1207;86189;-69
2021/07/26 05:06:16;;;;;;;8.30;7.60;;;;;;;27.73;53.61;100104.52;92858;1210;74739;-62
2021/07/26 05:08:24;;;;;;;8.20;7.30;;;;;;;27.79;53.10;100114.39;92926;1207;80824;-61
2021/07/26 05:10:32;;;;;;;8.00;7.20;;;;;;;28.48;51.82;100107.58;92954;1208;67201;-68
2021/07/26 05:12:43;;;;;;;9.00;7.70;;;;;;;29.28;51.29;100110.29;92938;1216;69389;-68
2021/07/26 05:14:53;;;;;;;11.60;7.50;;;;;;;29.96;50.71;100106.12;92951;1207;88047;-62
2021/07/26 05:17:01;;;;;;;8.50;7.40;;;;;;;30.59;48.49;100106.36;92963;1210;75266;-63
2021/07/26 05:19:11;;;;;;;11.60;7.90;;;;;;;30.81;47.38;100100.59;92915;1207;81753;-61
2021/07/26 05:21:19;;;;;;;8.10;7.30;;;;;;;31.37;47.19;100099.45;92945;1207;66868;-68
2021/07/26 05:23:26;;;;;;;8.10;7.10;;;;;;;31.70;45.85;100107.25;92943;1200;69494;-69
2021/07/26 05:25:34;;;;;;;8.10;7.00;;;;;;;31.86;44.93;100100.74;92947;1209;86496;-62
2021/07/26 05:27:42;;;;;;;8.10;7.30;;;;;;;32.36;44.75;100091.54;92921;1213;73845;-64
2021/07/26 05:29:51;;;;;;;9.50;7.20;;;;;;;32.95;44.25;100109.77;92928;1207;81124;-68
2021/07/26 05:31:59;;;;;;;9.00;7.20;;;;;;;33.51;43.00;100102.56;92836;1208;65856;-69
2021/07/26 05:34:10;;;;;;;11.90;7.10;;;;;;;34.05;41.48;100103.14;92946;1208;69581;-68
2021/07/26 05:36:19;;;;;;;8.60;7.10;;;;;;;34.13;41.50;100099.41;92921;1213;86209;-68
2021/07/26 05:38:27;;;;;;;8.50;7.00;;;;;;;34.25;40.34;100096.59;92921;1213;73735;-69
2021/07/26 05:40:35;;;;;;;8.10;7.20;;;;;;;34.23;39.56;100098.91;92929;1208;81015;-69
2021/07/26 05:42:43;;;;;;;7.80;7.00;;;;;;;34.30;39.09;100093.54;92948;1208;66086;-68
2021/07/26 05:44:50;;;;;;;9.20;6.90;;;;;;;34.25;39.39;100096.59;92857;1210;69455;-68
2021/07/26 05:46:59;;;;;;;7.70;6.90;;;;;;;34.88;38.63;100099.66;92891;1208;86666;-68
2021/07/26 05:49:07;;;;;;;7.80;6.70;;;;;;;34.95;38.59;100100.66;92900;1207;75087;-69
2021/07/26 05:51:15;;;;;;;10.00;6.50;;;;;;;35.54;38.07;100091.41;92817;1205;82134;-63
2021/07/26 05:53:22;;;;;;;8.90;6.70;;;;;;;35.79;37.66;100092.87;92905;1207;66549;-63
2021/07/26 05:55:31;;;;;;;8.40;7.60;;;;;;;36.12;36.36;100100.08;92940;1212;68415;-63
2021/07/26 05:57:44;;;;;;;7.90;7.00;;;;;;;36.13;36.15;100090.44;92876;1210;87483;-64
2021/07/26 05:59:57;;;;;;;;;;;;;;;36.34;36.25;100105.81;92969;1204;74992;-69
2021/07/26 06:02:05;;;;;;;7.70;6.60;;;;;;;36.31;35.12;100109.36;92969;1211;81091;-68
2021/07/26 06:04:12;;;;;;;8.30;7.50;;;;;;;35.62;35.46;100104.48;92937;1208;66693;-68
2021/07/26 06:06:20;;;;;;;8.20;7.40;;;;;;;34.60;36.15;100101.64;92926;1207;69786;-70
2021/07/26 06:08:28;;;;;;;8.90;7.00;;;;;;;33.50;37.21;100108.50;92876;1210;85569;-71
2021/07/26 06:10:36;;;;;;;8.70;7.50;;;;;;;32.71;37.93;100117.25;92950;1207;74559;-63
2021/07/26 06:12:43;;;;;;;8.50;7.40;;;;;;;31.94;38.77;100124.20;92931;1215;81983;-63
2021/07/26 06:14:51;;;;;;;11.40;7.80;;;;;;;31.13;40.04;100135.50;92863;1210;66607;-69
2021/07/26 06:16:59;;;;;;;8.00;7.20;;;;;;;30.44;41.13;100137.51;92965;1208;69303;-70
2021/07/26 06:19:09;;;;;;;8.60;7.50;;;;;;;29.92;41.69;100136.58;92956;1201;87096;-69
2021/07/26 06:21:17;;;;;;;12.80;8.00;;;;;;;29.32;42.79;100143.84;92940;1205;75175;-69
2021/07/26 06:23:25;;;;;;;8.30;7.40;;;;;;;29.00;43.60;100150.51;92960;1212;81391;-69
2021/07/26 06:25:33;;;;;;;7.90;7.10;;;;;;;28.74;44.13;100141.14;92972;1207;65239;-70
2021/07/26 06:27:42;;;;;;;8.40;7.60;;;;;;;28.48;44.86;100146.48;92987;1215;69719;-70
2021/07/26 06:29:52;;;;;;;8.00;7.20;;;;;;;28.29;45.23;100138.31;92928;1207;87003;-63
2021/07/26 06:32:00;;;;;;;9.00;8.00;;;;;;;29.38;45.57;100143.40;92964;1211;74525;-63
2021/07/26 06:34:09;;;;;;;8.30;7.50;;;;;;;31.03;44.36;100152.61;92944;1208;81033;-62
2021/07/26 06:36:19;;;;;;;8.80;7.90;;;;;;;31.99;42.62;100161.16;92942;1213;67024;-69
2021/07/26 06:38:26;;;;;;;8.40;7.50;;;;;;;31.89;41.07;100150.34;92954;1211;69298;-69
2021/07/26 06:40:34;;;;;;;9.20;7.70;;;;;;;31.59;41.65;100145.89;92877;1210;87199;-69
2021/07/26 06:42:42;;;;;;;9.20;8.10;;;;;;;31.42;41.90;100148.73;92872;1210;74662;-69
2021/07/26 06:44:50;;;;;;;9.60;7.40;;;;;;;31.54;42.26;100149.69;92960;1204;82014;-62
2021/07/26 06:47:01;;;;;;;8.20;7.20;;;;;;;31.32;42.07;100147.11;92946;1215;68415;-63
2021/07/26 06:49:11;;;;;;;8.10;7.30;;;;;;;30.85;42.78;100159.31;92884;1210;69627;-63
2021/07/26 06:51:19;;;;;;;8.30;7.60;;;;;;;31.08;42.73;100152.44;92929;1208;86215;-69
2021/07/26 06:53:28;;;;;;;10.10;7.50;;;;;;;30.81;42.61;100159.17;92954;1216;74478;-69
2021/07/26 06:55:38;;;;;;;8.40;7.70;;;;;;;30.75;42.98;100156.87;92864;1217;81463;-62
2021/07/26 06:57:46;;;;;;;10.10;7.90;;;;;;;30.31;43.49;100161.58;92949;1216;66261;-63
2021/07/26 06:59:53;;;;;;;8.50;7.70;;;;;;;30.20;44.10;100165.83;92937;1212;68123;-70
2021/07/26 07:02:01;;;;;;;8.30;7.60;;;;;;;29.95;43.99;100162.97;92946;1215;85736;-70
2021/07/26 07:04:08;;;;;;;7.90;7.10;;;;;;;29.51;44.61;100173.09;92945;1208;75663;-70
2021/07/26 07:06:20;;;;;;;9.00;7.80;;;;;;;28.90;45.48;100181.38;92853;1209;82017;-63
2021/07/26 07:08:28;;;;;;;8.90;8.00;;;;;;;28.62;46.36;100175.06;92933;1208;66344;-63
2021/07/26 07:10:35;;;;;;;9.70;8.00;;;;;;;28.16;46.88;100172.48;92934;1208;69074;-63
2021/07/26 07:12:43;;;;;;;8.30;7.50;;;;;;;28.03;47.36;100181.66;92903;1215;86746;-63
2021/07/26 07:14:50;;;;;;;9.10;8.30;;;;;;;27.89;47.76;100172.47;92927;1208;74209;-62
2021/07/26 07:16:58;;;;;;;9.40;8.30;;;;;;;27.67;48.13;100181.52;92947;1212;81620;-63
2021/07/26 07:19:06;;;;;;;9.20;8.30;;;;;;;27.34;48.47;100175.18;92968;1208;66423;-63
2021/07/26 07:21:19;;;;;;;11.80;9.10;;;;;;;27.03;49.55;100193.47;92963;1216;68593;-63
2021/07/26 07:23:30;;;;;;;8.70;7.90;;;;;;;26.73;49.94;100178.13;92985;1205;86597;-61
2021/07/26 07:25:39;;;;;;;9.80;8.60;;;;;;;26.67;50.29;100186.84;93001;1211;73967;-62
2021/07/26 07:27:47;;;;;;;8.70;7.90;;;;;;;26.56;50.79;100188.13;92968;1216;81760;-63
2021/07/26 07:29:55;;;;;;;9.80;8.80;;;;;;;26.45;50.92;100186.63;92957;1211;66399;-63
2021/07/26 07:32:04;;;;;;;9.40;8.20;;;;;;;26.51;51.25;100183.45;92953;1210;68218;-63
2021/07/26 07:34:15;;;;;;;9.60;8.70;;;;;;;26.47;51.29;100182.42;92958;1207;86489;-63
2021/07/26 07:36:24;;;;;;;10.20;8.50;;;;;;;26.35;51.30;100176.49;92985;1213;73676;-63
2021/07/26 07:38:33;;;;;;;10.00;8.20;;;;;;;26.42;51.72;100182.50;92961;1206;81739;-62
2021/07/26 07:40:44;;;;;;;9.50;8.70;;;;;;;26.52;51.72;100176.80;92965;1204;66512;-68
2021/07/26 07:42:54;;;;;;;10.10;9.10;;;;;;;26.44;52.32;100185.79;92861;1210;68315;-68
2021/07/26 07:45:02;;;;;;;8.60;7.80;;;;;;;26.40;52.41;100184.73;92922;1208;86389;-64
2021/07/26 07:47:13;;;;;;;9.40;8.40;;;;;;;26.45;52.56;100187.45;92955;1206;75675;-65
2021/07/26 07:49:21;;;;;;;9.40;8.20;;;;;;;26.45;52.61;100176.37;92890;1210;81225;-64
2021/07/26 07:51:35;;;;;;;9.00;8.00;;;;;;;26.44;52.46;100176.65;92949;1207;66904;-64
2021/07/26 07:53:46;;;;;;;9.10;8.20;;;;;;;26.38;52.79;100175.90;92978;1204;69120;-64
2021/07/26 07:55:56;;;;;;;11.70;8.20;;;;;;;26.44;52.65;100184.95;92853;1206;86515;-69
2021/07/26 07:58:06;;;;;;;9.90;8.90;;;;;;;26.41;52.89;100185.55;92965;1205;75012;-69
2021/07/26 08:00:17;;;;;;;9.60;8.70;;;;;;;26.40;52.96;100179.19;92962;1215;81533;-69
2021/07/26 08:02:24;;;;;;;9.30;8.40;;;;;;;26.30;52.91;100180.17;92976;1207;66450;-64
2021/07/26 08:04:35;;;;;;;9.70;8.70;;;;;;;26.25;53.08;100177.48;92953;1216;69720;-65
2021/07/26 08:06:43;;;;;;;9.10;8.20;;;;;;;26.23;52.92;100167.81;92935;1207;86771;-64
2021/07/26 08:08:54;;;;;;;9.20;8.40;;;;;;;26.26;53.57;100169.99;92938;1207;75488;-65
2021/07/26 08:11:05;;;;;;;10.20;9.10;;;;;;;26.04;53.49;100170.50;92864;1210;81374;-64
2021/07/26 08:13:20;;;;;;;10.20;8.90;;;;;;;26.03;53.39;100168.88;92950;1209;65696;-64
2021/07/26 08:15:28;;;;;;;9.70;8.70;;;;;;;26.06;53.95;100171.05;92962;1211;70553;-64
2021/07/26 08:17:40;;;;;;;9.40;8.50;;;;;;;26.11;53.86;100172.92;92842;1210;85656;-64
2021/07/26 08:19:48;;;;;;;11.00;9.20;;;;;;;26.01;53.76;100170.30;92965;1215;73870;-75
2021/07/26 08:21:56;;;;;;;11.90;9.30;;;;;;;26.00;53.81;100165.88;92925;1211;81489;-78
2021/07/26 08:24:04;;;;;;;10.50;9.40;;;;;;;25.88;54.20;100171.83;92970;1205;67785;-75
2021/07/26 08:26:12;;;;;;;10.00;9.10;;;;;;;25.88;54.31;100165.45;92936;1215;70239;-63
2021/07/26 08:28:20;;;;;;;9.90;9.00;;;;;;;25.83;54.18;100163.59;92971;1206;87301;-63
2021/07/26 08:30:31;;;;;;;10.60;9.50;;;;;;;25.92;54.33;100159.05;92921;1211;75235;-79
2021/07/26 08:32:38;;;;;;;11.40;9.20;;;;;;;25.94;54.33;100156.80;92934;1213;81561;-79
2021/07/26 08:34:50;;;;;;;11.20;9.20;;;;;;;25.97;54.46;100158.98;92928;1208;66852;-78
2021/07/26 08:36:59;;;;;;;9.60;8.70;;;;;;;25.98;54.18;100154.27;92957;1211;70484;-77
2021/07/26 08:39:09;;;;;;;9.70;8.70;;;;;;;25.95;54.03;100155.70;92866;1210;86720;-78
2021/07/26 08:41:19;;;;;;;9.70;8.60;;;;;;;26.06;54.28;100151.67;92982;1213;74615;-73
2021/07/26 08:43:28;;;;;;;9.70;8.70;;;;;;;26.24;54.21;100156.42;92943;1210;80068;-75
2021/07/26 08:45:36;;;;;;;9.60;8.60;;;;;;;26.32;54.40;100152.98;92876;1205;68209;-73
2021/07/26 08:47:47;;;;;;;10.20;9.10;;;;;;;26.46;53.92;100157.77;92979;1211;67853;-74
2021/07/26 08:49:58;;;;;;;9.90;9.00;;;;;;;26.54;54.24;100157.09;92978;1207;86320;-77
2021/07/26 08:52:07;;;;;;;9.60;8.70;;;;;;;26.58;53.79;100155.38;92946;1207;75338;-74
2021/07/26 08:54:16;;;;;;;9.60;8.60;;;;;;;26.83;53.45;100160.56;92949;1216;80476;-78
2021/07/26 08:56:24;;;;;;;10.00;8.70;;;;;;;26.80;53.34;100156.45;92938;1208;64990;-76
2021/07/26 08:58:32;;;;;;;9.70;8.80;;;;;;;26.68;53.00;100163.53;92843;1210;69526;-74
2021/07/26 09:00:40;;;;;;;10.20;8.30;;;;;;;26.64;53.43;100154.19;92930;1211;85525;-74
2021/07/26 09:02:48;;;;;;;9.70;8.60;;;;;;;26.59;53.32;100154.27;92943;1212;74077;-63
2021/07/26 09:04:59;;;;;;;10.80;9.20;;;;;;;26.75;53.42;100159.27;92844;1210;81546;-64
2021/07/26 09:07:11;;;;;;;8.90;8.10;;;;;;;26.73;53.30;100161.50;92917;1207;67324;-64
2021/07/26 09:09:19;;;;;;;10.80;8.80;;;;;;;26.84;53.70;100168.56;92949;1200;69253;-64
2021/07/26 09:11:42;;;;;;;10.50;9.40;;;;;;;26.96;53.84;100162.55;92913;1216;86965;-63
2021/07/26 09:13:50;;;;;;;10.90;9.10;;;;;;;27.50;54.17;100164.64;92953;1207;74302;-64
2021/07/26 09:16:20;;;;;;;10.50;9.20;;;;;;;28.28;53.08;100158.88;92930;1212;81228;-74
2021/07/26 09:18:28;;;;;;;13.30;9.70;;;;;;;28.39;51.77;100159.47;92958;1208;66014;-59
2021/07/26 09:20:39;;;;;;;11.00;9.90;;;;;;;28.26;51.66;100163.11;92967;1212;67812;-70
2021/07/26 09:22:50;;;;;;;11.60;10.60;;;;;;;27.96;51.81;100167.34;92979;1205;86434;-70
2021/07/26 09:25:28;;;;;;;11.60;10.30;;;;;;;27.87;51.66;100158.09;92938;1212;74508;-69
2021/07/26 09:27:39;;;;;;;11.20;10.20;;;;;;;27.89;52.21;100161.37;92913;1208;81552;-70
2021/07/26 09:29:46;;;;;;;12.30;11.10;;;;;;;27.61;52.08;100171.64;92934;1208;65586;-68
2021/07/26 09:32:02;;;;;;;11.50;10.40;;;;;;;27.39;51.95;100180.63;92928;1213;67717;-70
2021/07/26 09:34:26;;;;;;;12.10;10.90;;;;;;;27.15;52.95;100179.14;92950;1215;86337;-69
2021/07/26 09:36:41;;;;;;;11.10;10.10;;;;;;;27.32;53.00;100165.52;92942;1215;74468;-59
2021/07/26 09:39:02;;;;;;;12.30;11.20;;;;;;;27.81;53.10;100164.87;92900;1212;81715;-59
2021/07/26 09:41:11;;;;;;;11.20;10.20;;;;;;;27.97;52.37;100157.86;92866;1203;67131;-68
2021/07/26 09:43:24;;;;;;;11.10;10.00;;;;;;;28.32;52.42;100162.66;92960;1216;68833;-68
2021/07/26 09:45:32;;;;;;;11.30;10.20;;;;;;;28.33;51.79;100166.27;92963;1207;88069;-64
2021/07/26 09:47:40;;;;;;;11.20;10.10;;;;;;;27.92;51.42;100174.63;92944;1207;73932;-65
2021/07/26 09:49:49;;;;;;;13.70;12.40;;;;;;;27.63;51.55;100180.51;92914;1212;81838;-66
2021/07/26 09:52:11;;;;;;;12.80;11.60;;;;;;;27.37;51.50;100174.58;92920;1212;67038;-65
2021/07/26 09:54:19;;;;;;;14.20;12.80;;;;;;;26.49;53.91;100187.66;92961;1200;69495;-64